sensor_id;sensor_type;location;lat;lon;timestamp;P1;durP1;ratioP1;P2;durP2;ratioP2
67514;SDS011;60646;55.802;37.032;2022-09-23T00:06:21;5.13;;;3.08;;
67514;SDS011;60646;55.802;37.032;2022-09-23T00:09:08;5.78;;;3.40;;
67514;SDS011;60646;55.802;37.032;2022-09-23T00:14:40;5.60;;;3.45;;
67514;SDS011;60646;55.802;37.032;2022-09-23T00:17:46;6.03;;;3.58;;
67514;SDS011;60646;55.802;37.032;2022-09-23T00:20:52;5.93;;;3.15;;
67514;SDS011;60646;55.802;37.032;2022-09-23T00:23:18;6.18;;;3.63;;
67514;SDS011;60646;55.802;37.032;2022-09-23T00:28:31;6.18;;;3.60;;
67514;SDS011;60646;55.802;37.032;2022-09-23T00:31:18;6.35;;;3.38;;
67514;SDS011;60646;55.802;37.032;2022-09-23T00:34:25;4.97;;;3.08;;
67514;SDS011;60646;55.802;37.032;2022-09-23T00:37:52;4.60;;;3.03;;
67514;SDS011;60646;55.802;37.032;2022-09-23T00:40:59;4.60;;;2.97;;
67514;SDS011;60646;55.802;37.032;2022-09-23T00:46:15;5.90;;;3.03;;
67514;SDS011;60646;55.802;37.032;2022-09-23T00:52:17;6.20;;;3.63;;
67514;SDS011;60646;55.802;37.032;2022-09-23T00:59:13;5.68;;;3.15;;
67514;SDS011;60646;55.802;37.032;2022-09-23T01:01:59;6.18;;;3.13;;
67514;SDS011;60646;55.802;37.032;2022-09-23T01:07:32;5.47;;;3.58;;
67514;SDS011;60646;55.802;37.032;2022-09-23T01:35:28;8.27;;;4.50;;
67514;SDS011;60646;55.802;37.032;2022-09-23T01:38:25;7.35;;;4.00;;
67514;SDS011;60646;55.802;37.032;2022-09-23T01:44:47;8.52;;;3.95;;
67514;SDS011;60646;55.802;37.032;2022-09-23T01:47:41;8.75;;;4.63;;
67514;SDS011;60646;55.802;37.032;2022-09-23T01:54:02;9.30;;;4.63;;
67514;SDS011;60646;55.802;37.032;2022-09-23T01:57:31;6.85;;;4.13;;
67514;SDS011;60646;55.802;37.032;2022-09-23T02:00:59;7.25;;;3.83;;
67514;SDS011;60646;55.802;37.032;2022-09-23T02:13:08;5.32;;;3.88;;
67514;SDS011;60646;55.802;37.032;2022-09-23T02:15:48;6.40;;;3.95;;
67514;SDS011;60646;55.802;37.032;2022-09-23T02:25:30;4.88;;;3.05;;
67514;SDS011;60646;55.802;37.032;2022-09-23T02:28:54;6.40;;;3.35;;
67514;SDS011;60646;55.802;37.032;2022-09-23T02:35:34;7.50;;;3.10;;
67514;SDS011;60646;55.802;37.032;2022-09-23T02:38:28;5.35;;;2.80;;
67514;SDS011;60646;55.802;37.032;2022-09-23T02:41:15;4.88;;;3.40;;
67514;SDS011;60646;55.802;37.032;2022-09-23T02:44:23;6.20;;;3.10;;
67514;SDS011;60646;55.802;37.032;2022-09-23T02:49:58;4.55;;;3.03;;
67514;SDS011;60646;55.802;37.032;2022-09-23T02:52:46;4.55;;;3.03;;
67514;SDS011;60646;55.802;37.032;2022-09-23T02:55:33;5.15;;;3.03;;
67514;SDS011;60646;55.802;37.032;2022-09-23T03:01:29;5.50;;;3.03;;
67514;SDS011;60646;55.802;37.032;2022-09-23T03:10:20;4.93;;;3.38;;
67514;SDS011;60646;55.802;37.032;2022-09-23T03:14:21;6.50;;;3.10;;
67514;SDS011;60646;55.802;37.032;2022-09-23T03:17:17;4.40;;;3.05;;
67514;SDS011;60646;55.802;37.032;2022-09-23T03:23:42;4.78;;;2.75;;
67514;SDS011;60646;55.802;37.032;2022-09-23T03:26:30;5.03;;;2.83;;
67514;SDS011;60646;55.802;37.032;2022-09-23T03:29:18;4.80;;;2.60;;
67514;SDS011;60646;55.802;37.032;2022-09-23T03:32:25;3.58;;;2.47;;
67514;SDS011;60646;55.802;37.032;2022-09-23T03:34:54;4.20;;;3.00;;
67514;SDS011;60646;55.802;37.032;2022-09-23T03:44:43;5.43;;;3.00;;
67514;SDS011;60646;55.802;37.032;2022-09-23T03:47:31;6.47;;;3.85;;
67514;SDS011;60646;55.802;37.032;2022-09-23T03:50:37;6.72;;;3.75;;
67514;SDS011;60646;55.802;37.032;2022-09-23T03:53:03;5.95;;;3.35;;
67514;SDS011;60646;55.802;37.032;2022-09-23T03:56:09;5.63;;;3.30;;
67514;SDS011;60646;55.802;37.032;2022-09-23T03:58:36;7.03;;;3.33;;
67514;SDS011;60646;55.802;37.032;2022-09-23T04:01:22;5.50;;;3.05;;
67514;SDS011;60646;55.802;37.032;2022-09-23T04:04:07;5.10;;;3.20;;
67514;SDS011;60646;55.802;37.032;2022-09-23T04:06:34;4.97;;;3.08;;
67514;SDS011;60646;55.802;37.032;2022-09-23T04:09:20;5.63;;;3.00;;
67514;SDS011;60646;55.802;37.032;2022-09-23T04:11:48;4.88;;;2.95;;
67514;SDS011;60646;55.802;37.032;2022-09-23T04:14:54;7.28;;;3.30;;
67514;SDS011;60646;55.802;37.032;2022-09-23T04:18:01;4.97;;;3.08;;
67514;SDS011;60646;55.802;37.032;2022-09-23T04:23:53;5.22;;;2.80;;
67514;SDS011;60646;55.802;37.032;2022-09-23T04:26:19;4.68;;;2.85;;
67514;SDS011;60646;55.802;37.032;2022-09-23T04:29:25;4.65;;;3.05;;
67514;SDS011;60646;55.802;37.032;2022-09-23T04:31:51;4.88;;;3.30;;
67514;SDS011;60646;55.802;37.032;2022-09-23T04:38:05;5.43;;;3.92;;
67514;SDS011;60646;55.802;37.032;2022-09-23T04:41:12;4.53;;;2.90;;
67514;SDS011;60646;55.802;37.032;2022-09-23T04:49:50;4.03;;;2.75;;
67514;SDS011;60646;55.802;37.032;2022-09-23T04:55:03;5.53;;;3.28;;
67514;SDS011;60646;55.802;37.032;2022-09-23T04:57:49;5.88;;;3.17;;
67514;SDS011;60646;55.802;37.032;2022-09-23T05:04:06;5.25;;;3.10;;
67514;SDS011;60646;55.802;37.032;2022-09-23T05:06:54;4.10;;;2.67;;
67514;SDS011;60646;55.802;37.032;2022-09-23T05:12:49;3.92;;;2.67;;
67514;SDS011;60646;55.802;37.032;2022-09-23T05:15:15;5.47;;;2.88;;
67514;SDS011;60646;55.802;37.032;2022-09-23T05:18:01;4.88;;;3.03;;
67514;SDS011;60646;55.802;37.032;2022-09-23T05:21:08;4.30;;;2.67;;
67514;SDS011;60646;55.802;37.032;2022-09-23T05:23:35;5.60;;;3.22;;
67514;SDS011;60646;55.802;37.032;2022-09-23T05:26:22;5.35;;;3.15;;
67514;SDS011;60646;55.802;37.032;2022-09-23T05:29:10;7.00;;;3.00;;
67514;SDS011;60646;55.802;37.032;2022-09-23T05:32:16;5.70;;;2.70;;
67514;SDS011;60646;55.802;37.032;2022-09-23T05:35:02;5.72;;;2.90;;
67514;SDS011;60646;55.802;37.032;2022-09-23T05:41:16;4.93;;;2.83;;
67514;SDS011;60646;55.802;37.032;2022-09-23T05:47:09;7.15;;;2.95;;
67514;SDS011;60646;55.802;37.032;2022-09-23T05:49:35;7.63;;;3.20;;
67514;SDS011;60646;55.802;37.032;2022-09-23T05:52:01;6.28;;;3.22;;
67514;SDS011;60646;55.802;37.032;2022-09-23T05:54:47;5.28;;;2.67;;
67514;SDS011;60646;55.802;37.032;2022-09-23T05:57:14;7.00;;;3.08;;
67514;SDS011;60646;55.802;37.032;2022-09-23T06:00:20;4.82;;;2.47;;
67514;SDS011;60646;55.802;37.032;2022-09-23T06:03:12;7.03;;;2.83;;
67514;SDS011;60646;55.802;37.032;2022-09-23T06:06:20;4.30;;;2.63;;
67514;SDS011;60646;55.802;37.032;2022-09-23T06:12:24;4.05;;;2.40;;
67514;SDS011;60646;55.802;37.032;2022-09-23T06:15:28;4.07;;;2.63;;
67514;SDS011;60646;55.802;37.032;2022-09-23T06:21:41;4.18;;;2.20;;
67514;SDS011;60646;55.802;37.032;2022-09-23T06:27:34;4.07;;;2.50;;
67514;SDS011;60646;55.802;37.032;2022-09-23T06:30:20;3.05;;;2.00;;
67514;SDS011;60646;55.802;37.032;2022-09-23T06:33:27;2.35;;;1.70;;
67514;SDS011;60646;55.802;37.032;2022-09-23T06:35:54;4.00;;;2.03;;
67514;SDS011;60646;55.802;37.032;2022-09-23T06:38:43;5.00;;;2.10;;
67514;SDS011;60646;55.802;37.032;2022-09-23T06:41:30;6.13;;;2.50;;
67514;SDS011;60646;55.802;37.032;2022-09-23T06:46:42;3.92;;;2.30;;
67514;SDS011;60646;55.802;37.032;2022-09-23T06:49:27;6.32;;;2.53;;
67514;SDS011;60646;55.802;37.032;2022-09-23T06:55:24;3.25;;;1.95;;
67514;SDS011;60646;55.802;37.032;2022-09-23T06:58:11;6.13;;;2.53;;
67514;SDS011;60646;55.802;37.032;2022-09-23T07:00:37;4.35;;;2.22;;
67514;SDS011;60646;55.802;37.032;2022-09-23T07:12:25;4.90;;;2.22;;
67514;SDS011;60646;55.802;37.032;2022-09-23T07:15:11;2.88;;;1.98;;
67514;SDS011;60646;55.802;37.032;2022-09-23T07:18:17;3.85;;;1.95;;
67514;SDS011;60646;55.802;37.032;2022-09-23T07:20:44;3.55;;;2.40;;
67514;SDS011;60646;55.802;37.032;2022-09-23T07:26:36;4.10;;;2.28;;
67514;SDS011;60646;55.802;37.032;2022-09-23T07:29:02;3.28;;;2.05;;
67514;SDS011;60646;55.802;37.032;2022-09-23T07:31:29;4.30;;;2.33;;
67514;SDS011;60646;55.802;37.032;2022-09-23T07:34:17;3.38;;;2.10;;
67514;SDS011;60646;55.802;37.032;2022-09-23T07:37:03;4.18;;;2.08;;
67514;SDS011;60646;55.802;37.032;2022-09-23T07:40:09;3.00;;;2.08;;
67514;SDS011;60646;55.802;37.032;2022-09-23T07:45:42;3.63;;;1.85;;
67514;SDS011;60646;55.802;37.032;2022-09-23T07:48:30;2.90;;;2.00;;
67514;SDS011;60646;55.802;37.032;2022-09-23T07:54:05;3.33;;;2.00;;
67514;SDS011;60646;55.802;37.032;2022-09-23T07:56:52;4.07;;;2.13;;
67514;SDS011;60646;55.802;37.032;2022-09-23T07:59:58;3.05;;;2.10;;
67514;SDS011;60646;55.802;37.032;2022-09-23T08:05:31;3.03;;;1.95;;
67514;SDS011;60646;55.802;37.032;2022-09-23T08:08:38;3.38;;;2.10;;
67514;SDS011;60646;55.802;37.032;2022-09-23T08:11:08;3.50;;;1.90;;
67514;SDS011;60646;55.802;37.032;2022-09-23T08:14:17;2.58;;;1.67;;
67514;SDS011;60646;55.802;37.032;2022-09-23T08:17:04;2.80;;;1.92;;
67514;SDS011;60646;55.802;37.032;2022-09-23T08:20:30;3.50;;;2.10;;
67514;SDS011;60646;55.802;37.032;2022-09-23T08:26:16;3.50;;;1.85;;
67514;SDS011;60646;55.802;37.032;2022-09-23T08:29:02;3.20;;;1.70;;
67514;SDS011;60646;55.802;37.032;2022-09-23T08:32:09;2.53;;;1.58;;
67514;SDS011;60646;55.802;37.032;2022-09-23T08:38:41;2.13;;;1.35;;
67514;SDS011;60646;55.802;37.032;2022-09-23T08:47:06;4.75;;;1.58;;
67514;SDS011;60646;55.802;37.032;2022-09-23T08:49:40;2.58;;;1.70;;
67514;SDS011;60646;55.802;37.032;2022-09-23T08:55:10;3.38;;;1.50;;
67514;SDS011;60646;55.802;37.032;2022-09-23T09:03:54;2.63;;;1.60;;
67514;SDS011;60646;55.802;37.032;2022-09-23T09:10:08;2.03;;;1.48;;
67514;SDS011;60646;55.802;37.032;2022-09-23T09:19:12;1.85;;;1.58;;
67514;SDS011;60646;55.802;37.032;2022-09-23T09:21:46;3.97;;;1.70;;
67514;SDS011;60646;55.802;37.032;2022-09-23T09:24:17;3.28;;;1.92;;
67514;SDS011;60646;55.802;37.032;2022-09-23T09:30:37;2.13;;;1.70;;
67514;SDS011;60646;55.802;37.032;2022-09-23T09:33:26;2.97;;;1.98;;
67514;SDS011;60646;55.802;37.032;2022-09-23T09:36:42;2.20;;;1.50;;
67514;SDS011;60646;55.802;37.032;2022-09-23T09:46:51;2.30;;;1.40;;
67514;SDS011;60646;55.802;37.032;2022-09-23T09:53:48;2.20;;;1.42;;
67514;SDS011;60646;55.802;37.032;2022-09-23T09:56:58;2.65;;;1.50;;
67514;SDS011;60646;55.802;37.032;2022-09-23T09:59:49;2.30;;;1.40;;
67514;SDS011;60646;55.802;37.032;2022-09-23T10:09:12;2.63;;;1.65;;
67514;SDS011;60646;55.802;37.032;2022-09-23T10:12:26;2.05;;;1.50;;
67514;SDS011;60646;55.802;37.032;2022-09-23T10:14:55;2.70;;;1.75;;
67514;SDS011;60646;55.802;37.032;2022-09-23T10:17:41;4.20;;;1.70;;
67514;SDS011;60646;55.802;37.032;2022-09-23T10:23:17;2.25;;;1.67;;
67514;SDS011;60646;55.802;37.032;2022-09-23T10:32:32;3.03;;;2.00;;
67514;SDS011;60646;55.802;37.032;2022-09-23T10:37:37;4.00;;;2.20;;
67514;SDS011;60646;55.802;37.032;2022-09-23T10:43:56;2.53;;;1.67;;
67514;SDS011;60646;55.802;37.032;2022-09-23T10:47:21;4.97;;;2.17;;
67514;SDS011;60646;55.802;37.032;2022-09-23T10:50:04;3.00;;;1.85;;
67514;SDS011;60646;55.802;37.032;2022-09-23T10:56:23;3.88;;;1.60;;
67514;SDS011;60646;55.802;37.032;2022-09-23T11:10:37;2.25;;;1.10;;
67514;SDS011;60646;55.802;37.032;2022-09-23T11:16:40;3.05;;;1.98;;
67514;SDS011;60646;55.802;37.032;2022-09-23T11:28:33;2.33;;;1.70;;
67514;SDS011;60646;55.802;37.032;2022-09-23T11:34:27;2.80;;;1.50;;
67514;SDS011;60646;55.802;37.032;2022-09-23T11:38:06;2.60;;;1.70;;
67514;SDS011;60646;55.802;37.032;2022-09-23T11:41:17;2.65;;;1.67;;
67514;SDS011;60646;55.802;37.032;2022-09-23T11:43:57;1.85;;;1.20;;
67514;SDS011;60646;55.802;37.032;2022-09-23T11:49:10;2.55;;;1.40;;
67514;SDS011;60646;55.802;37.032;2022-09-23T11:52:00;2.03;;;1.45;;
67514;SDS011;60646;55.802;37.032;2022-09-23T11:58:39;3.05;;;1.60;;
67514;SDS011;60646;55.802;37.032;2022-09-23T12:01:45;2.95;;;1.67;;
67514;SDS011;60646;55.802;37.032;2022-09-23T12:05:35;5.43;;;3.42;;
67514;SDS011;60646;55.802;37.032;2022-09-23T12:28:27;5.60;;;3.28;;
67514;SDS011;60646;55.802;37.032;2022-09-23T12:33:32;5.10;;;2.85;;
67514;SDS011;60646;55.802;37.032;2022-09-23T12:51:13;2.28;;;1.52;;
67514;SDS011;60646;55.802;37.032;2022-09-23T13:01:54;3.70;;;1.77;;
67514;SDS011;60646;55.802;37.032;2022-09-23T13:07:30;2.13;;;1.50;;
67514;SDS011;60646;55.802;37.032;2022-09-23T13:10:03;4.40;;;1.60;;
67514;SDS011;60646;55.802;37.032;2022-09-23T13:12:37;4.45;;;1.50;;
67514;SDS011;60646;55.802;37.032;2022-09-23T13:15:25;3.00;;;1.30;;
67514;SDS011;60646;55.802;37.032;2022-09-23T13:20:51;3.15;;;1.70;;
67514;SDS011;60646;55.802;37.032;2022-09-23T13:25:56;2.03;;;1.50;;
67514;SDS011;60646;55.802;37.032;2022-09-23T13:28:37;3.65;;;2.58;;
67514;SDS011;60646;55.802;37.032;2022-09-23T13:31:21;3.80;;;2.20;;
67514;SDS011;60646;55.802;37.032;2022-09-23T13:33:48;2.92;;;2.00;;
67514;SDS011;60646;55.802;37.032;2022-09-23T13:36:19;2.60;;;1.67;;
67514;SDS011;60646;55.802;37.032;2022-09-23T13:38:45;2.85;;;1.77;;
67514;SDS011;60646;55.802;37.032;2022-09-23T13:41:12;3.33;;;1.77;;
67514;SDS011;60646;55.802;37.032;2022-09-23T13:46:17;7.30;;;2.22;;
67514;SDS011;60646;55.802;37.032;2022-09-23T13:48:51;2.45;;;2.03;;
67514;SDS011;60646;55.802;37.032;2022-09-23T13:51:29;3.78;;;2.35;;
67514;SDS011;60646;55.802;37.032;2022-09-23T13:53:59;3.85;;;2.28;;
67514;SDS011;60646;55.802;37.032;2022-09-23T13:56:30;3.65;;;1.95;;
67514;SDS011;60646;55.802;37.032;2022-09-23T13:59:19;3.13;;;2.13;;
67514;SDS011;60646;55.802;37.032;2022-09-23T14:02:00;3.63;;;2.40;;
67514;SDS011;60646;55.802;37.032;2022-09-23T14:04:36;6.90;;;3.42;;
67514;SDS011;60646;55.802;37.032;2022-09-23T14:07:02;7.53;;;3.85;;
67514;SDS011;60646;55.802;37.032;2022-09-23T14:09:31;5.10;;;2.92;;
67514;SDS011;60646;55.802;37.032;2022-09-23T14:12:00;5.20;;;2.55;;
67514;SDS011;60646;55.802;37.032;2022-09-23T14:15:04;7.28;;;3.88;;
67514;SDS011;60646;55.802;37.032;2022-09-23T14:17:31;4.47;;;2.20;;
67514;SDS011;60646;55.802;37.032;2022-09-23T14:19:57;4.47;;;2.45;;
67514;SDS011;60646;55.802;37.032;2022-09-23T14:22:24;3.25;;;1.83;;
67514;SDS011;60646;55.802;37.032;2022-09-23T14:24:52;3.45;;;2.20;;
67514;SDS011;60646;55.802;37.032;2022-09-23T14:30:01;4.45;;;2.35;;
67514;SDS011;60646;55.802;37.032;2022-09-23T14:32:28;4.68;;;2.25;;
67514;SDS011;60646;55.802;37.032;2022-09-23T14:37:28;4.93;;;2.20;;
67514;SDS011;60646;55.802;37.032;2022-09-23T14:43:05;2.83;;;1.73;;
67514;SDS011;60646;55.802;37.032;2022-09-23T14:45:43;2.72;;;1.75;;
67514;SDS011;60646;55.802;37.032;2022-09-23T14:48:20;4.10;;;1.70;;
67514;SDS011;60646;55.802;37.032;2022-09-23T14:50:50;3.83;;;2.15;;
67514;SDS011;60646;55.802;37.032;2022-09-23T15:01:47;5.72;;;3.28;;
67514;SDS011;60646;55.802;37.032;2022-09-23T15:04:26;9.38;;;4.85;;
67514;SDS011;60646;55.802;37.032;2022-09-23T15:09:25;7.57;;;4.22;;
67514;SDS011;60646;55.802;37.032;2022-09-23T15:12:01;8.93;;;4.53;;
67514;SDS011;60646;55.802;37.032;2022-09-23T15:14:33;8.70;;;4.47;;
67514;SDS011;60646;55.802;37.032;2022-09-23T15:17:03;11.43;;;5.00;;
67514;SDS011;60646;55.802;37.032;2022-09-23T15:19:32;9.82;;;4.25;;
67514;SDS011;60646;55.802;37.032;2022-09-23T15:22:00;6.32;;;3.13;;
67514;SDS011;60646;55.802;37.032;2022-09-23T15:24:33;8.25;;;2.72;;
67514;SDS011;60646;55.802;37.032;2022-09-23T15:27:31;4.47;;;2.13;;
67514;SDS011;60646;55.802;37.032;2022-09-23T15:30:00;4.70;;;2.10;;
67514;SDS011;60646;55.802;37.032;2022-09-23T15:32:37;6.32;;;2.83;;
67514;SDS011;60646;55.802;37.032;2022-09-23T15:35:04;4.60;;;2.60;;
67514;SDS011;60646;55.802;37.032;2022-09-23T15:37:30;3.50;;;2.10;;
67514;SDS011;60646;55.802;37.032;2022-09-23T15:39:56;7.03;;;2.47;;
67514;SDS011;60646;55.802;37.032;2022-09-23T15:42:22;7.53;;;2.80;;
67514;SDS011;60646;55.802;37.032;2022-09-23T15:44:48;3.63;;;2.28;;
67514;SDS011;60646;55.802;37.032;2022-09-23T15:47:14;4.57;;;1.95;;
67514;SDS011;60646;55.802;37.032;2022-09-23T15:49:45;6.03;;;2.65;;
67514;SDS011;60646;55.802;37.032;2022-09-23T15:52:11;8.25;;;3.63;;
67514;SDS011;60646;55.802;37.032;2022-09-23T15:54:40;9.43;;;3.95;;
67514;SDS011;60646;55.802;37.032;2022-09-23T15:57:08;7.43;;;3.40;;
67514;SDS011;60646;55.802;37.032;2022-09-23T15:59:34;7.97;;;3.40;;
67514;SDS011;60646;55.802;37.032;2022-09-23T16:02:03;7.35;;;3.55;;
67514;SDS011;60646;55.802;37.032;2022-09-23T16:04:40;6.47;;;3.28;;
67514;SDS011;60646;55.802;37.032;2022-09-23T16:07:08;5.75;;;3.15;;
67514;SDS011;60646;55.802;37.032;2022-09-23T16:09:38;3.30;;;1.90;;
67514;SDS011;60646;55.802;37.032;2022-09-23T16:12:04;6.03;;;2.20;;
67514;SDS011;60646;55.802;37.032;2022-09-23T16:14:39;6.88;;;2.97;;
67514;SDS011;60646;55.802;37.032;2022-09-23T16:17:04;6.50;;;3.10;;
67514;SDS011;60646;55.802;37.032;2022-09-23T16:19:36;8.15;;;3.33;;
67514;SDS011;60646;55.802;37.032;2022-09-23T16:22:02;6.50;;;2.90;;
67514;SDS011;60646;55.802;37.032;2022-09-23T16:24:29;7.15;;;3.05;;
67514;SDS011;60646;55.802;37.032;2022-09-23T16:26:55;6.90;;;3.22;;
67514;SDS011;60646;55.802;37.032;2022-09-23T16:29:27;8.88;;;3.85;;
67514;SDS011;60646;55.802;37.032;2022-09-23T16:32:03;12.38;;;4.95;;
67514;SDS011;60646;55.802;37.032;2022-09-23T16:34:29;15.45;;;5.88;;
67514;SDS011;60646;55.802;37.032;2022-09-23T16:36:55;16.35;;;6.03;;
67514;SDS011;60646;55.802;37.032;2022-09-23T16:39:21;11.07;;;3.80;;
67514;SDS011;60646;55.802;37.032;2022-09-23T16:41:47;13.38;;;4.57;;
67514;SDS011;60646;55.802;37.032;2022-09-23T16:44:14;13.77;;;5.95;;
67514;SDS011;60646;55.802;37.032;2022-09-23T16:46:40;11.63;;;4.45;;
67514;SDS011;60646;55.802;37.032;2022-09-23T16:49:07;13.00;;;4.30;;
67514;SDS011;60646;55.802;37.032;2022-09-23T16:51:36;14.05;;;4.47;;
67514;SDS011;60646;55.802;37.032;2022-09-23T16:54:07;9.95;;;3.20;;
67514;SDS011;60646;55.802;37.032;2022-09-23T16:59:01;3.67;;;1.77;;
67514;SDS011;60646;55.802;37.032;2022-09-23T17:01:28;2.92;;;1.67;;
67514;SDS011;60646;55.802;37.032;2022-09-23T17:04:14;2.47;;;1.40;;
67514;SDS011;60646;55.802;37.032;2022-09-23T17:06:41;2.70;;;1.45;;
67514;SDS011;60646;55.802;37.032;2022-09-23T17:09:08;2.30;;;1.55;;
67514;SDS011;60646;55.802;37.032;2022-09-23T17:11:35;2.05;;;1.38;;
67514;SDS011;60646;55.802;37.032;2022-09-23T17:14:21;2.40;;;1.58;;
67514;SDS011;60646;55.802;37.032;2022-09-23T17:16:47;2.25;;;1.42;;
67514;SDS011;60646;55.802;37.032;2022-09-23T17:19:13;3.60;;;1.40;;
67514;SDS011;60646;55.802;37.032;2022-09-23T17:21:38;3.35;;;1.60;;
67514;SDS011;60646;55.802;37.032;2022-09-23T17:24:06;3.05;;;1.38;;
67514;SDS011;60646;55.802;37.032;2022-09-23T17:26:51;3.33;;;1.45;;
67514;SDS011;60646;55.802;37.032;2022-09-23T17:29:17;4.63;;;1.48;;
67514;SDS011;60646;55.802;37.032;2022-09-23T17:31:43;2.17;;;1.27;;
67514;SDS011;60646;55.802;37.032;2022-09-23T17:34:08;2.85;;;1.52;;
67514;SDS011;60646;55.802;37.032;2022-09-23T17:36:34;6.40;;;3.08;;
67514;SDS011;60646;55.802;37.032;2022-09-23T17:39:00;9.30;;;3.97;;
67514;SDS011;60646;55.802;37.032;2022-09-23T17:41:26;6.07;;;2.72;;
67514;SDS011;60646;55.802;37.032;2022-09-23T17:43:53;4.70;;;1.52;;
67514;SDS011;60646;55.802;37.032;2022-09-23T17:46:20;3.90;;;1.83;;
67514;SDS011;60646;55.802;37.032;2022-09-23T17:48:47;2.63;;;1.40;;
67514;SDS011;60646;55.802;37.032;2022-09-23T17:51:14;2.50;;;1.50;;
67514;SDS011;60646;55.802;37.032;2022-09-23T17:53:42;4.13;;;1.77;;
67514;SDS011;60646;55.802;37.032;2022-09-23T17:56:14;5.32;;;1.90;;
67514;SDS011;60646;55.802;37.032;2022-09-23T17:58:44;6.75;;;3.15;;
67514;SDS011;60646;55.802;37.032;2022-09-23T18:01:12;6.55;;;3.33;;
67514;SDS011;60646;55.802;37.032;2022-09-23T18:03:43;11.25;;;4.30;;
67514;SDS011;60646;55.802;37.032;2022-09-23T18:06:29;7.65;;;3.42;;
67514;SDS011;60646;55.802;37.032;2022-09-23T18:09:00;6.85;;;3.00;;
67514;SDS011;60646;55.802;37.032;2022-09-23T18:11:29;5.10;;;2.58;;
67514;SDS011;60646;55.802;37.032;2022-09-23T18:16:32;3.92;;;2.00;;
67514;SDS011;60646;55.802;37.032;2022-09-23T18:19:00;3.53;;;1.38;;
67514;SDS011;60646;55.802;37.032;2022-09-23T18:21:29;5.55;;;2.88;;
67514;SDS011;60646;55.802;37.032;2022-09-23T18:23:57;7.63;;;3.85;;
67514;SDS011;60646;55.802;37.032;2022-09-23T18:26:42;6.20;;;3.33;;
67514;SDS011;60646;55.802;37.032;2022-09-23T18:29:08;4.50;;;2.17;;
67514;SDS011;60646;55.802;37.032;2022-09-23T18:31:35;6.68;;;2.50;;
67514;SDS011;60646;55.802;37.032;2022-09-23T18:34:03;3.97;;;2.00;;
67514;SDS011;60646;55.802;37.032;2022-09-23T18:36:36;2.72;;;1.65;;
67514;SDS011;60646;55.802;37.032;2022-09-23T18:39:52;3.28;;;1.88;;
67514;SDS011;60646;55.802;37.032;2022-09-23T18:42:21;3.22;;;1.67;;
67514;SDS011;60646;55.802;37.032;2022-09-23T18:44:48;6.88;;;3.60;;
67514;SDS011;60646;55.802;37.032;2022-09-23T18:47:19;6.22;;;2.85;;
67514;SDS011;60646;55.802;37.032;2022-09-23T18:50:03;3.53;;;1.85;;
67514;SDS011;60646;55.802;37.032;2022-09-23T18:52:48;3.15;;;1.40;;
67514;SDS011;60646;55.802;37.032;2022-09-23T18:55:14;12.02;;;4.47;;
67514;SDS011;60646;55.802;37.032;2022-09-23T18:57:40;13.73;;;5.55;;
67514;SDS011;60646;55.802;37.032;2022-09-23T19:00:06;12.68;;;4.65;;
67514;SDS011;60646;55.802;37.032;2022-09-23T19:02:34;10.20;;;4.45;;
67514;SDS011;60646;55.802;37.032;2022-09-23T19:05:00;6.15;;;2.55;;
67514;SDS011;60646;55.802;37.032;2022-09-23T19:07:31;5.75;;;3.22;;
67514;SDS011;60646;55.802;37.032;2022-09-23T19:10:00;3.53;;;1.98;;
67514;SDS011;60646;55.802;37.032;2022-09-23T19:12:29;2.58;;;1.65;;
67514;SDS011;60646;55.802;37.032;2022-09-23T19:14:55;4.72;;;3.10;;
67514;SDS011;60646;55.802;37.032;2022-09-23T19:17:21;2.92;;;2.00;;
67514;SDS011;60646;55.802;37.032;2022-09-23T19:19:48;2.95;;;2.00;;
67514;SDS011;60646;55.802;37.032;2022-09-23T19:22:17;11.50;;;4.05;;
67514;SDS011;60646;55.802;37.032;2022-09-23T19:24:43;7.93;;;3.53;;
67514;SDS011;60646;55.802;37.032;2022-09-23T19:27:09;5.55;;;2.97;;
67514;SDS011;60646;55.802;37.032;2022-09-23T19:29:35;4.70;;;2.65;;
67514;SDS011;60646;55.802;37.032;2022-09-23T19:32:03;7.05;;;2.60;;
67514;SDS011;60646;55.802;37.032;2022-09-23T19:34:29;4.28;;;2.20;;
67514;SDS011;60646;55.802;37.032;2022-09-23T19:36:56;4.57;;;1.85;;
67514;SDS011;60646;55.802;37.032;2022-09-23T19:39:28;2.90;;;1.65;;
67514;SDS011;60646;55.802;37.032;2022-09-23T19:41:57;5.13;;;2.78;;
67514;SDS011;60646;55.802;37.032;2022-09-23T19:44:26;4.88;;;2.70;;
67514;SDS011;60646;55.802;37.032;2022-09-23T19:46:52;3.53;;;1.73;;
67514;SDS011;60646;55.802;37.032;2022-09-23T19:49:19;3.38;;;1.98;;
67514;SDS011;60646;55.802;37.032;2022-09-23T19:51:48;2.65;;;1.80;;
67514;SDS011;60646;55.802;37.032;2022-09-23T19:54:14;2.45;;;1.48;;
67514;SDS011;60646;55.802;37.032;2022-09-23T19:56:45;4.63;;;1.88;;
67514;SDS011;60646;55.802;37.032;2022-09-23T19:59:11;4.03;;;1.58;;
67514;SDS011;60646;55.802;37.032;2022-09-23T20:01:38;2.85;;;1.40;;
67514;SDS011;60646;55.802;37.032;2022-09-23T20:04:04;2.00;;;1.33;;
67514;SDS011;60646;55.802;37.032;2022-09-23T20:06:31;2.42;;;1.45;;
67514;SDS011;60646;55.802;37.032;2022-09-23T20:08:58;2.60;;;1.50;;
67514;SDS011;60646;55.802;37.032;2022-09-23T20:11:27;1.65;;;1.20;;
67514;SDS011;60646;55.802;37.032;2022-09-23T20:13:54;2.22;;;1.42;;
67514;SDS011;60646;55.802;37.032;2022-09-23T20:16:25;2.05;;;1.30;;
67514;SDS011;60646;55.802;37.032;2022-09-23T20:18:53;2.45;;;1.40;;
67514;SDS011;60646;55.802;37.032;2022-09-23T20:21:21;3.47;;;1.60;;
67514;SDS011;60646;55.802;37.032;2022-09-23T20:23:47;2.22;;;1.40;;
67514;SDS011;60646;55.802;37.032;2022-09-23T20:26:12;2.65;;;1.60;;
67514;SDS011;60646;55.802;37.032;2022-09-23T20:29:06;2.63;;;1.80;;
67514;SDS011;60646;55.802;37.032;2022-09-23T20:31:37;2.65;;;1.70;;
67514;SDS011;60646;55.802;37.032;2022-09-23T20:34:09;2.88;;;1.50;;
67514;SDS011;60646;55.802;37.032;2022-09-23T20:36:41;2.60;;;1.65;;
67514;SDS011;60646;55.802;37.032;2022-09-23T20:41:41;1.83;;;1.33;;
67514;SDS011;60646;55.802;37.032;2022-09-23T20:44:28;3.08;;;1.55;;
67514;SDS011;60646;55.802;37.032;2022-09-23T20:46:54;2.20;;;1.38;;
67514;SDS011;60646;55.802;37.032;2022-09-23T20:49:20;2.55;;;1.65;;
67514;SDS011;60646;55.802;37.032;2022-09-23T20:51:50;3.42;;;1.67;;
67514;SDS011;60646;55.802;37.032;2022-09-23T20:54:16;2.90;;;1.75;;
67514;SDS011;60646;55.802;37.032;2022-09-23T20:56:45;2.58;;;1.63;;
67514;SDS011;60646;55.802;37.032;2022-09-23T20:59:12;4.95;;;1.85;;
67514;SDS011;60646;55.802;37.032;2022-09-23T21:01:39;2.58;;;1.63;;
67514;SDS011;60646;55.802;37.032;2022-09-23T21:04:09;3.20;;;1.85;;
67514;SDS011;60646;55.802;37.032;2022-09-23T21:06:36;2.42;;;1.63;;
67514;SDS011;60646;55.802;37.032;2022-09-23T21:09:03;2.35;;;1.77;;
67514;SDS011;60646;55.802;37.032;2022-09-23T21:11:30;3.75;;;1.80;;
67514;SDS011;60646;55.802;37.032;2022-09-23T21:13:56;3.50;;;1.80;;
67514;SDS011;60646;55.802;37.032;2022-09-23T21:16:25;3.20;;;1.40;;
67514;SDS011;60646;55.802;37.032;2022-09-23T21:18:51;2.88;;;1.70;;
67514;SDS011;60646;55.802;37.032;2022-09-23T21:21:17;2.40;;;1.50;;
67514;SDS011;60646;55.802;37.032;2022-09-23T21:23:44;3.20;;;1.80;;
67514;SDS011;60646;55.802;37.032;2022-09-23T21:26:20;3.63;;;1.70;;
67514;SDS011;60646;55.802;37.032;2022-09-23T21:28:52;3.10;;;1.65;;
67514;SDS011;60646;55.802;37.032;2022-09-23T21:31:23;2.58;;;1.45;;
67514;SDS011;60646;55.802;37.032;2022-09-23T21:33:54;2.20;;;1.35;;
67514;SDS011;60646;55.802;37.032;2022-09-23T21:36:20;2.42;;;1.63;;